This is the latest recevied weather packets stored in our database for station/object EA2KR-10. If no packets are shown the sender has not sent any weather packets the latest 10 day(s).
| Time | Temp. | Humidity | Pressure | Rain* | Wind** | Luminosity | Snow |
|---|---|---|---|---|---|---|---|
| 1788410009 | 23.33° C | 40% | 1035.6 hPa | - | - | - | - |
| 1788408209 | 23.33° C | 39% | 1035.5 hPa | - | - | - | - |
| 1788406409 | 23.33° C | 39% | 1035.6 hPa | - | - | - | - |
| 1788404609 | 23.89° C | 38% | 1035.7 hPa | - | - | - | - |
| 1788402809 | 23.89° C | 38% | 1035.8 hPa | - | - | - | - |
| 1788401009 | 24.44° C | 38% | 1035.7 hPa | - | - | - | - |
| 1788399209 | 25° C | 37% | 1035.9 hPa | - | - | - | - |
| 1788397409 | 25° C | 38% | 1035.8 hPa | - | - | - | - |
| 1788395609 | 25.56° C | 38% | 1035.9 hPa | - | - | - | - |
| 1788393808 | 26.11° C | 37% | 1035.9 hPa | - | - | - | - |
| 1788392008 | 26.67° C | 36% | 1036 hPa | - | - | - | - |
| 1788390208 | 27.22° C | 35% | 1035.9 hPa | - | - | - | - |
| 1788388408 | 27.78° C | 35% | 1035.7 hPa | - | - | - | - |
| 1788386608 | 28.33° C | 34% | 1035.6 hPa | - | - | - | - |
| 1788384808 | 29.44° C | 34% | 1035.7 hPa | - | - | - | - |
| 1788383008 | 30° C | 33% | 1035.7 hPa | - | - | - | - |
| 1788381207 | 31.11° C | 31% | 1035.7 hPa | - | - | - | - |
| 1788379406 | 32.22° C | 30% | 1035.5 hPa | - | - | - | - |
| 1788377606 | 33.89° C | 28% | 1035 hPa | - | - | - | - |
| 1788375806 | 36.11° C | 26% | 1034.6 hPa | - | - | - | - |
| 1788374008 | 37.78° C | 24% | 1034.3 hPa | - | - | - | - |
| 1788372208 | 40° C | 23% | 1033.9 hPa | - | - | - | - |
| 1788370407 | 41.11° C | 22% | 1033.9 hPa | - | - | - | - |
| 1788368607 | 42.78° C | 21% | 1033.8 hPa | - | - | - | - |
| 1788366807 | 43.89° C | 21% | 1033.9 hPa | - | - | - | - |
* Rain since midnight (hover to see other rain measurements)
** Current wind speed in m/s (hover to see current wind gust speed)